Time;durP1;ratioP1;P1;durP2;ratioP2;P2;SDS_P1;SDS_P2;PMS_P1;PMS_P2;Temp;Humidity;BMP_temperature;BMP_pressure;BME280_temperature;BME280_humidity;BME280_pressure;Samples;Min_cycle;Max_cycle;Signal;HPM_P1;HPM_P2
2022/11/27 00:03:46;;;;;;;7.60;2.85;;;7.10;99.90;;;;;;20484643;28;20121;-40
2022/11/27 00:13:48;;;;;;;5.03;2.40;;;7.10;99.90;;;;;;20499320;28;20047;-41
2022/11/27 00:23:51;;;;;;;8.88;2.47;;;7.00;99.90;;;;;;20469537;28;20138;-40
2022/11/27 00:33:57;;;;;;;5.20;2.35;;;7.10;99.90;;;;;;20461930;28;20538;-40
2022/11/27 00:43:58;;;;;;;9.03;2.83;;;7.00;99.90;;;;;;20464598;28;20036;-40
2022/11/27 00:53:59;;;;;;;16.02;3.38;;;7.00;99.90;;;;;;20468389;28;20054;-40
2022/11/27 01:04:03;;;;;;;11.27;2.47;;;7.10;99.90;;;;;;20469774;28;20079;-40
2022/11/27 01:14:07;;;;;;;5.15;1.98;;;7.00;99.90;;;;;;20470771;28;20562;-40
2022/11/27 01:24:10;;;;;;;5.63;2.88;;;7.10;99.90;;;;;;20456396;28;20699;-41
2022/11/27 01:34:17;;;;;;;2.15;1.02;;;7.10;99.90;;;;;;20460723;28;20106;-40
2022/11/27 01:44:24;;;;;;;2.70;1.80;;;7.10;99.90;;;;;;20470617;28;20117;-40
2022/11/27 01:54:31;;;;;;;7.13;2.88;;;7.10;99.90;;;;;;20466300;28;20644;-40
2022/11/27 02:04:32;;;;;;;5.82;1.52;;;6.90;99.90;;;;;;20450035;28;20063;-40
2022/11/27 02:14:43;;;;;;;2.33;1.13;;;6.90;99.90;;;;;;20463022;28;20050;-40
2022/11/27 02:25:04;;;;;;;3.60;1.20;;;6.80;99.90;;;;;;20463121;28;20915;-40
2022/11/27 02:35:25;;;;;;;9.35;2.65;;;6.80;99.90;;;;;;20478533;28;20544;-40
2022/11/27 02:45:59;;;;;;;3.05;1.85;;;6.80;99.90;;;;;;20473862;28;20042;-40
2022/11/27 02:56:05;;;;;;;3.50;1.27;;;6.80;99.90;;;;;;20444153;28;20859;-40
2022/11/27 03:06:12;;;;;;;4.28;1.55;;;6.90;99.90;;;;;;20469327;28;20182;-40
2022/11/27 03:16:34;;;;;;;2.00;1.00;;;6.90;99.90;;;;;;20474374;28;20062;-41
2022/11/27 03:26:37;;;;;;;3.55;1.20;;;7.00;99.90;;;;;;20478491;28;20086;-40
2022/11/27 03:36:38;;;;;;;4.22;1.55;;;7.00;99.90;;;;;;21023364;23;20505;-40
2022/11/27 03:47:03;;;;;;;3.65;1.27;;;7.00;99.90;;;;;;20645085;28;20046;-39
2022/11/27 03:57:17;;;;;;;2.40;1.02;;;7.00;99.90;;;;;;20493316;28;20380;-40
2022/11/27 04:07:18;;;;;;;5.15;2.05;;;7.00;99.90;;;;;;20496294;28;20147;-40
2022/11/27 04:17:19;;;;;;;2.42;1.25;;;7.00;99.90;;;;;;20500523;28;20062;-40
2022/11/27 04:27:20;;;;;;;2.80;1.02;;;7.00;99.90;;;;;;20484152;28;20072;-40
2022/11/27 04:37:21;;;;;;;3.03;1.10;;;6.90;99.90;;;;;;20439617;28;20070;-40
2022/11/27 04:47:22;;;;;;;1.73;1.00;;;6.90;99.90;;;;;;20413572;28;20043;-40
2022/11/27 04:57:23;;;;;;;9.43;2.85;;;6.80;99.90;;;;;;20403989;28;20071;-40
2022/11/27 05:07:24;;;;;;;5.15;2.10;;;6.80;99.90;;;;;;20416194;28;20047;-40
2022/11/27 05:17:25;;;;;;;4.97;2.20;;;6.80;99.90;;;;;;20428751;28;20420;-41
2022/11/27 05:27:26;;;;;;;3.47;1.55;;;6.80;99.90;;;;;;20441054;28;20208;-40
2022/11/27 05:37:27;;;;;;;3.40;1.75;;;6.70;99.90;;;;;;20440255;28;20546;-40
2022/11/27 05:47:28;;;;;;;5.35;2.22;;;6.60;99.90;;;;;;20438905;28;20058;-39
2022/11/27 05:57:32;;;;;;;4.28;1.85;;;6.50;99.90;;;;;;20449254;28;20146;-40
2022/11/27 06:07:33;;;;;;;7.20;1.63;;;6.40;99.90;;;;;;20458186;28;20121;-39
2022/11/27 06:17:34;;;;;;;8.02;1.40;;;6.50;99.90;;;;;;20474265;28;20427;-39
2022/11/27 06:27:35;;;;;;;4.43;1.50;;;6.50;99.90;;;;;;20468318;28;21100;-39
2022/11/27 06:37:36;;;;;;;3.30;1.08;;;6.50;99.90;;;;;;20463545;28;20503;-39
2022/11/27 06:47:37;;;;;;;3.03;0.95;;;6.60;99.90;;;;;;20451064;28;20106;-39
2022/11/27 06:57:38;;;;;;;2.20;0.70;;;6.60;99.90;;;;;;20457224;28;20693;-39
2022/11/27 07:07:39;;;;;;;3.17;1.83;;;6.50;99.90;;;;;;20471027;28;20506;-39
2022/11/27 07:17:40;;;;;;;1.80;0.98;;;6.60;99.90;;;;;;20446261;28;20043;-39
2022/11/27 07:27:41;;;;;;;6.05;1.33;;;6.50;99.90;;;;;;20446242;28;20047;-39
2022/11/27 07:37:42;;;;;;;3.47;1.20;;;6.50;99.90;;;;;;20437026;28;21822;-39
2022/11/27 07:47:43;;;;;;;3.35;1.10;;;6.50;99.90;;;;;;20449697;28;20046;-39
2022/11/27 07:57:44;;;;;;;6.00;1.65;;;6.50;99.90;;;;;;20431531;28;20047;-39
2022/11/27 08:07:45;;;;;;;6.68;2.10;;;6.50;99.90;;;;;;20447997;28;20058;-39
2022/11/27 08:17:46;;;;;;;2.47;1.02;;;6.70;99.90;;;;;;20439247;28;20061;-39
2022/11/27 08:27:47;;;;;;;3.97;1.73;;;6.70;99.90;;;;;;20439274;28;20547;-39
2022/11/27 08:37:48;;;;;;;2.63;1.58;;;6.70;99.90;;;;;;20400917;28;20382;-39
2022/11/27 08:47:49;;;;;;;5.45;2.67;;;6.80;99.90;;;;;;20434419;28;20043;-39
2022/11/27 08:57:50;;;;;;;4.00;1.95;;;6.90;99.90;;;;;;20431724;28;20053;-39
2022/11/27 09:07:51;;;;;;;9.65;2.03;;;6.80;99.90;;;;;;20425939;28;20060;-39
2022/11/27 09:17:53;;;;;;;3.47;2.08;;;6.70;99.90;;;;;;20415428;28;20118;-39
2022/11/27 09:27:54;;;;;;;2.70;1.35;;;6.70;99.90;;;;;;20426953;28;20704;-39
2022/11/27 09:37:55;;;;;;;7.80;2.10;;;6.70;99.90;;;;;;20389756;28;20553;-39
2022/11/27 09:48:04;;;;;;;6.13;1.80;;;6.80;99.90;;;;;;20422026;28;20062;-39
2022/11/27 09:58:13;;;;;;;2.83;1.63;;;6.80;99.90;;;;;;20375329;28;20043;-39
2022/11/27 10:08:33;;;;;;;4.68;2.15;;;6.80;99.90;;;;;;20426318;28;20690;-39
2022/11/27 10:18:59;;;;;;;6.00;1.88;;;6.90;99.90;;;;;;20406453;28;20150;-40
2022/11/27 10:29:16;;;;;;;6.55;2.95;;;6.90;99.90;;;;;;20414347;28;20987;-39
2022/11/27 10:39:35;;;;;;;4.67;2.87;;;7.00;99.90;;;;;;20410084;28;20051;-40
2022/11/27 10:49:39;;;;;;;6.40;2.65;;;7.00;99.90;;;;;;20441962;28;20142;-39
2022/11/27 11:00:21;;;;;;;7.10;2.00;;;7.00;99.90;;;;;;20474114;28;20610;-39
2022/11/27 11:10:34;;;;;;;4.35;2.80;;;7.10;99.90;;;;;;20482757;28;21012;-39
2022/11/27 11:20:35;;;;;;;4.57;2.70;;;7.10;99.90;;;;;;20463890;28;20102;-39
2022/11/27 11:30:38;;;;;;;3.80;1.95;;;7.20;99.90;;;;;;20434145;28;20150;-39
2022/11/27 11:40:43;;;;;;;8.57;2.67;;;7.30;99.90;;;;;;20433415;28;20925;-39
2022/11/27 11:50:51;;;;;;;3.60;1.95;;;7.30;99.90;;;;;;20430688;28;20393;-39
2022/11/27 12:01:13;;;;;;;3.28;1.90;;;7.40;99.90;;;;;;20430842;28;20117;-39
2022/11/27 12:11:42;;;;;;;5.63;2.50;;;7.60;99.90;;;;;;20441195;28;20134;-39
2022/11/27 12:21:53;;;;;;;3.30;2.30;;;7.60;99.90;;;;;;20447955;28;21807;-39
2022/11/27 12:32:13;;;;;;;5.47;1.92;;;7.60;99.90;;;;;;20451895;28;20550;-39
2022/11/27 12:42:21;;;;;;;3.97;1.73;;;7.80;99.90;;;;;;20445042;28;20559;-39
2022/11/27 12:52:30;;;;;;;2.65;1.15;;;7.90;99.90;;;;;;20420728;28;20145;-40
2022/11/27 13:02:42;;;;;;;3.03;1.30;;;8.10;99.90;;;;;;20433641;28;20122;-40
2022/11/27 13:13:00;;;;;;;11.85;2.17;;;8.00;99.90;;;;;;20433757;28;20862;-39
2022/11/27 13:23:01;;;;;;;5.88;1.98;;;8.00;99.90;;;;;;20429077;28;20071;-40
2022/11/27 13:33:05;;;;;;;4.20;1.45;;;8.00;99.90;;;;;;20442079;28;20078;-39
2022/11/27 13:43:22;;;;;;;4.13;2.13;;;8.00;99.90;;;;;;20444947;28;20117;-40
2022/11/27 13:53:33;;;;;;;3.13;1.60;;;7.90;99.90;;;;;;20441202;28;20051;-40
2022/11/27 14:03:35;;;;;;;3.35;1.73;;;7.90;99.90;;;;;;20422620;28;20154;-40
2022/11/27 14:13:39;;;;;;;4.55;2.38;;;7.90;99.90;;;;;;20434171;28;20150;-40
2022/11/27 14:23:51;;;;;;;2.17;1.30;;;7.90;99.90;;;;;;20369140;28;20710;-40
2022/11/27 14:33:52;;;;;;;5.22;2.00;;;7.90;99.90;;;;;;20408218;28;20920;-40
2022/11/27 14:44:02;;;;;;;5.10;2.35;;;7.90;99.90;;;;;;20416700;28;20392;-39
2022/11/27 14:54:14;;;;;;;4.05;2.35;;;7.80;99.90;;;;;;20420030;28;20597;-40
2022/11/27 15:04:25;;;;;;;4.00;1.98;;;7.80;99.90;;;;;;20417489;28;20085;-40
2022/11/27 15:14:28;;;;;;;4.15;2.78;;;7.80;99.90;;;;;;20414646;28;20047;-40
2022/11/27 15:24:38;;;;;;;5.53;2.72;;;7.70;99.90;;;;;;20395621;28;20093;-40
2022/11/27 15:34:39;;;;;;;5.10;2.85;;;7.70;99.90;;;;;;20414212;28;20915;-40
2022/11/27 15:44:40;;;;;;;8.98;4.50;;;7.70;99.90;;;;;;20434538;28;20647;-41
2022/11/27 15:54:41;;;;;;;5.93;2.83;;;7.80;99.90;;;;;;20431294;28;20874;-40
2022/11/27 16:04:42;;;;;;;5.93;2.60;;;7.80;99.90;;;;;;20404180;28;22309;-41
2022/11/27 16:14:43;;;;;;;4.78;2.75;;;7.80;99.90;;;;;;20406182;28;20904;-41
2022/11/27 16:24:44;;;;;;;5.53;2.72;;;7.80;99.90;;;;;;20403078;28;20530;-40
2022/11/27 16:34:45;;;;;;;7.90;3.25;;;7.80;99.90;;;;;;20402170;28;20490;-40
2022/11/27 16:44:46;;;;;;;4.18;1.95;;;7.80;99.90;;;;;;20457889;28;20657;-40
2022/11/27 16:54:47;;;;;;;7.15;3.10;;;7.80;99.90;;;;;;20455946;28;20178;-40
2022/11/27 17:04:48;;;;;;;4.97;2.83;;;7.60;99.90;;;;;;20435227;28;20063;-41
2022/11/27 17:14:49;;;;;;;6.70;3.78;;;7.60;99.90;;;;;;20419755;28;20079;-40
2022/11/27 17:24:50;;;;;;;4.47;2.20;;;7.60;99.90;;;;;;20438718;28;20478;-40
2022/11/27 17:34:51;;;;;;;4.35;2.08;;;7.60;99.90;;;;;;20431194;28;20132;-40
2022/11/27 17:44:52;;;;;;;7.13;2.38;;;7.40;99.90;;;;;;20426842;28;20039;-40
2022/11/27 17:54:53;;;;;;;4.20;2.70;;;7.40;99.90;;;;;;20422647;28;20227;-40
2022/11/27 18:04:54;;;;;;;5.65;2.95;;;7.30;99.90;;;;;;20421661;28;20043;-40
2022/11/27 18:14:56;;;;;;;11.15;4.40;;;7.30;99.90;;;;;;20412858;28;20056;-40
2022/11/27 18:24:57;;;;;;;5.70;3.53;;;7.20;99.90;;;;;;20415362;28;20171;-40
2022/11/27 18:34:58;;;;;;;8.32;4.43;;;7.20;99.90;;;;;;20396336;28;20074;-40
2022/11/27 18:44:59;;;;;;;12.77;4.78;;;7.10;99.90;;;;;;20391754;28;20031;-40
2022/11/27 18:55:01;;;;;;;5.88;2.72;;;7.10;99.90;;;;;;20391892;28;20101;-41
2022/11/27 19:05:03;;;;;;;5.63;3.58;;;7.00;99.90;;;;;;20382137;28;20566;-41
2022/11/27 19:15:04;;;;;;;4.50;2.58;;;7.00;99.90;;;;;;20407046;28;20051;-40
2022/11/27 19:25:05;;;;;;;4.93;2.45;;;7.00;99.90;;;;;;20413663;28;20122;-41
2022/11/27 19:35:08;;;;;;;5.15;2.85;;;6.90;99.90;;;;;;20432820;28;20146;-40
2022/11/27 19:45:09;;;;;;;7.32;3.08;;;6.90;99.90;;;;;;20413777;28;20158;-40
2022/11/27 19:55:10;;;;;;;12.25;5.45;;;6.90;99.90;;;;;;20394990;28;20053;-40
2022/11/27 20:05:11;;;;;;;6.75;4.05;;;6.90;99.90;;;;;;20388805;28;20079;-40
2022/11/27 20:15:15;;;;;;;11.02;4.22;;;6.90;99.90;;;;;;20399247;28;20047;-41
2022/11/27 20:25:16;;;;;;;16.52;4.05;;;6.90;99.90;;;;;;20389197;28;20700;-40
2022/11/27 20:35:17;;;;;;;7.00;3.50;;;6.80;99.90;;;;;;20412006;28;20039;-41
2022/11/27 20:45:18;;;;;;;8.23;4.45;;;6.90;99.90;;;;;;20419306;28;20070;-40
2022/11/27 20:55:19;;;;;;;8.07;4.03;;;6.80;99.90;;;;;;20409170;28;20085;-40
2022/11/27 21:05:20;;;;;;;7.60;3.55;;;6.80;99.90;;;;;;20407709;28;20045;-40
2022/11/27 21:15:21;;;;;;;9.85;5.15;;;6.90;99.90;;;;;;20437997;28;20078;-40
2022/11/27 21:25:22;;;;;;;9.15;4.45;;;6.80;99.90;;;;;;20465294;28;20053;-39
2022/11/27 21:35:24;;;;;;;7.30;3.20;;;6.80;99.90;;;;;;20462140;28;20114;-40
2022/11/27 21:45:25;;;;;;;9.35;5.07;;;6.80;99.90;;;;;;20447484;28;20066;-40
2022/11/27 21:55:26;;;;;;;9.93;4.88;;;6.80;99.90;;;;;;20446878;28;20044;-40
2022/11/27 22:05:27;;;;;;;7.85;4.10;;;6.80;99.90;;;;;;20449112;28;20047;-43
2022/11/27 22:15:28;;;;;;;7.03;4.18;;;6.80;99.90;;;;;;20448040;28;20080;-44
2022/11/27 22:25:29;;;;;;;8.30;4.15;;;6.90;99.90;;;;;;20441874;28;20046;-43
2022/11/27 22:35:30;;;;;;;6.63;3.92;;;6.90;99.90;;;;;;20443192;28;20075;-43
2022/11/27 22:45:31;;;;;;;5.15;3.40;;;6.90;99.90;;;;;;20451827;28;20521;-43
2022/11/27 22:55:34;;;;;;;6.35;3.65;;;7.00;99.90;;;;;;20462706;28;20430;-42
2022/11/27 23:05:35;;;;;;;5.20;2.90;;;7.00;99.90;;;;;;20441850;28;20170;-42
2022/11/27 23:15:36;;;;;;;7.50;4.05;;;7.10;99.90;;;;;;20457193;28;20152;-43
2022/11/27 23:25:38;;;;;;;6.03;3.15;;;7.10;99.90;;;;;;20461565;28;20035;-43
2022/11/27 23:35:39;;;;;;;5.78;3.53;;;7.10;99.90;;;;;;20433867;28;20764;-42
2022/11/27 23:45:40;;;;;;;5.72;2.83;;;7.10;99.90;;;;;;20436152;28;20039;-43
2022/11/27 23:55:41;;;;;;;7.65;4.45;;;7.30;99.90;;;;;;20437212;28;20247;-41
